createdAt,value
2023-01-12T00:03:26.802Z,-28.3
2023-01-12T00:07:29.189Z,-28.2
2023-01-12T00:09:30.227Z,-28.6
2023-01-12T00:11:31.953Z,-28.6
2023-01-12T00:13:33.116Z,-28.4
2023-01-12T00:19:36.918Z,-28.5
2023-01-12T00:21:38.149Z,-28.3
2023-01-12T00:23:39.147Z,-28.4
2023-01-12T00:25:40.080Z,-28.2
2023-01-12T00:27:41.103Z,-28.4
2023-01-12T00:29:42.792Z,-28.4
2023-01-12T00:35:46.006Z,-28.7
2023-01-12T00:37:47.357Z,-28.3
2023-01-12T00:40:01.219Z,-28.3
2023-01-12T00:41:50.381Z,-28.2
2023-01-12T00:43:51.836Z,-28.4
2023-01-12T00:45:53.476Z,-28.4
2023-01-12T00:47:54.546Z,-28.4
2023-01-12T00:49:55.980Z,-28.4
2023-01-12T00:51:57.730Z,-28.6
2023-01-12T00:56:00.256Z,-28.5
2023-01-12T01:00:03.053Z,-28.5
2023-01-12T01:00:46.901Z,-28.4
2023-01-12T01:02:48.090Z,-28
2023-01-12T01:04:49.346Z,-28.1
2023-01-12T01:06:50.771Z,-28.5
2023-01-12T01:08:51.808Z,-28.4
2023-01-12T01:10:53.002Z,-28.3
2023-01-12T01:12:54.681Z,-28.4
2023-01-12T01:14:55.911Z,-28.3
2023-01-12T01:16:56.974Z,-28.6
2023-01-12T01:18:58.464Z,-28.6
2023-01-12T01:21:00.297Z,-28.5
2023-01-12T01:23:02.062Z,-28.2
2023-01-12T01:25:03.490Z,-28.5
2023-01-12T01:27:04.719Z,-28.4
2023-01-12T01:29:06.420Z,-28.3
2023-01-12T01:31:07.508Z,-28.5
2023-01-12T01:33:08.526Z,-28.2
2023-01-12T01:35:10.252Z,-28.2
2023-01-12T01:37:11.803Z,-28.5
2023-01-12T01:39:13.562Z,-28
2023-01-12T01:43:16.632Z,-28.5
2023-01-12T01:45:17.860Z,-28.5
2023-01-12T01:47:19.186Z,-28.4
2023-01-12T01:49:20.404Z,-28.2
2023-01-12T01:51:21.644Z,-28.2
2023-01-12T01:55:25.258Z,-28.6
2023-01-12T01:57:26.765Z,-28.6
2023-01-12T01:59:28.164Z,-28.3
2023-01-12T02:01:29.882Z,-28.2
2023-01-12T02:03:33.985Z,-28.6
2023-01-12T02:05:33.060Z,-28.3
2023-01-12T02:07:34.417Z,-28.2
2023-01-12T02:09:35.774Z,-28.3
2023-01-12T02:11:37.074Z,-28.6
2023-01-12T02:13:38.619Z,-28.5
2023-01-12T02:15:40.128Z,-28.6
2023-01-12T02:17:41.326Z,-28.4
2023-01-12T02:19:43.059Z,-28
2023-01-12T02:21:44.627Z,-28.6
2023-01-12T02:23:45.977Z,-28.6
2023-01-12T02:25:47.418Z,-28.5
2023-01-12T02:27:49.001Z,-28.2
2023-01-12T02:29:50.387Z,-28.2
2023-01-12T02:31:51.997Z,-28.1
2023-01-12T02:33:53.394Z,-28.5
2023-01-12T02:35:54.519Z,-28.3
2023-01-12T02:37:55.671Z,-28.5
2023-01-12T02:39:57.288Z,-28.4
2023-01-12T02:41:59.184Z,-28.4
2023-01-12T02:44:00.702Z,-28.7
2023-01-12T02:46:01.876Z,-28.4
2023-01-12T02:48:03.601Z,-28.3
2023-01-12T02:54:07.215Z,-28.3
2023-01-12T02:56:08.769Z,-28.2
2023-01-12T02:58:10.076Z,-28.5
2023-01-12T03:00:11.881Z,-28.5
2023-01-12T03:02:13.067Z,-28.2
2023-01-12T03:04:14.523Z,-28.4
2023-01-12T03:08:18.190Z,-28.3
2023-01-12T03:10:19.395Z,-28.3
2023-01-12T03:12:20.467Z,-28.5
2023-01-12T03:14:21.783Z,-28.6
2023-01-12T03:18:25.576Z,-28.4
2023-01-12T03:20:26.794Z,-28.3
2023-01-12T03:24:29.358Z,-28.1
2023-01-12T03:26:30.964Z,-28.1
2023-01-12T03:28:32.398Z,-28.5
2023-01-12T03:30:34.095Z,-28.6
2023-01-12T03:34:37.223Z,-28.4
2023-01-12T03:36:38.952Z,-28.5
2023-01-12T03:38:40.593Z,-28.3
2023-01-12T03:40:41.927Z,-28.5
2023-01-12T03:44:45.213Z,-28.3
2023-01-12T03:46:46.243Z,-28.3
2023-01-12T03:50:49.704Z,-28.4
2023-01-12T03:52:51.542Z,-28.2
2023-01-12T03:54:53.035Z,-28.3
2023-01-12T03:56:54.247Z,-28.2
2023-01-12T04:02:58.762Z,-28.4
2023-01-12T04:05:00.628Z,-28
2023-01-12T04:07:02.294Z,-28.4
2023-01-12T04:09:04.221Z,-28.1
2023-01-12T04:11:05.503Z,-28.2
2023-01-12T04:13:07.237Z,-28.2
2023-01-12T04:17:09.636Z,-28.4
2023-01-12T04:19:11.108Z,-28.5
2023-01-12T04:21:12.080Z,-28.3
2023-01-12T04:23:13.850Z,-28.3
2023-01-12T04:25:15.474Z,-28.2
2023-01-12T04:27:16.564Z,-28.7
2023-01-12T04:29:18.430Z,-28.2
2023-01-12T04:31:20.354Z,-28.3
2023-01-12T04:33:21.879Z,-28.3
2023-01-12T04:35:23.796Z,-28
2023-01-12T04:37:25.181Z,-28.2
2023-01-12T04:39:26.260Z,-28.6
2023-01-12T04:41:27.410Z,-28.4
2023-01-12T04:45:30.151Z,-28.3
2023-01-12T04:47:31.856Z,-28.4
2023-01-12T04:49:33.652Z,-28.4
2023-01-12T04:51:35.087Z,-28.3
2023-01-12T04:53:36.477Z,-28.3
2023-01-12T04:55:37.725Z,-28.4
2023-01-12T04:57:39.603Z,-28.6
2023-01-12T04:59:41.538Z,-28.4
2023-01-12T05:01:43.341Z,-28.6
2023-01-12T05:03:44.838Z,-28.6
2023-01-12T05:05:46.514Z,-28.4
2023-01-12T05:07:47.849Z,-28.4
2023-01-12T05:09:48.964Z,-28.5
2023-01-12T05:11:50.609Z,-28.4
2023-01-12T05:13:51.805Z,-28.3
2023-01-12T05:15:53.509Z,-28.1
2023-01-12T05:17:54.947Z,-28.5
2023-01-12T05:19:56.239Z,-28.5
2023-01-12T05:21:57.393Z,-28.3
2023-01-12T05:23:58.771Z,-28.5
2023-01-12T05:26:00.259Z,-28.2
2023-01-12T05:28:01.651Z,-28.4
2023-01-12T05:32:04.082Z,-28.3
2023-01-12T05:34:05.026Z,-28.6
2023-01-12T05:36:06.762Z,-28
2023-01-12T05:38:08.399Z,-28.4
2023-01-12T05:40:09.638Z,-28.4
2023-01-12T05:44:13.177Z,-28.6
2023-01-12T05:46:14.372Z,-28.5
2023-01-12T05:48:16.202Z,-28.5
2023-01-12T05:50:17.424Z,-28.3
2023-01-12T05:52:19.187Z,-28.4
2023-01-12T05:54:21.029Z,-28.3
2023-01-12T05:56:22.553Z,-28.2
2023-01-12T05:58:23.760Z,-28.5
2023-01-12T06:00:24.760Z,-28.3
2023-01-12T06:02:26.256Z,-28.5
2023-01-12T06:04:27.682Z,-28.4
2023-01-12T06:06:28.625Z,-28.4
2023-01-12T06:08:30.046Z,-28.4
2023-01-12T06:10:31.837Z,-28.4
2023-01-12T06:12:33.252Z,-28.3
2023-01-12T06:14:34.654Z,-28.7
2023-01-12T06:16:35.616Z,-28.4
2023-01-12T06:20:37.974Z,-28.4
2023-01-12T06:22:39.341Z,-28.5
2023-01-12T06:24:41.274Z,-28.3
2023-01-12T06:26:43.132Z,-28.4
2023-01-12T06:28:45.024Z,-28.3
2023-01-12T06:30:46.079Z,-28.5
2023-01-12T06:32:47.038Z,-28.4
2023-01-12T06:34:48.185Z,-28.4
2023-01-12T06:36:49.753Z,-27.9
2023-01-12T06:42:54.392Z,-28.5
2023-01-12T06:44:56.086Z,-28.3
2023-01-12T06:46:57.306Z,-28.3
2023-01-12T06:48:59.196Z,-28.2
2023-01-12T06:51:00.332Z,-28.4
2023-01-12T06:53:01.591Z,-28.4
2023-01-12T06:57:04.966Z,-28.5
2023-01-12T06:59:06.142Z,-28.3
2023-01-12T07:01:07.668Z,-28.2
2023-01-12T07:03:09.143Z,-28.5
2023-01-12T07:09:22.130Z,-28.5
2023-01-12T07:13:16.226Z,-28.3
2023-01-12T07:15:18.122Z,-28.3
2023-01-12T07:17:20.060Z,-28.3
2023-01-12T07:19:21.177Z,-28.5
2023-01-12T07:25:25.794Z,-28.4
2023-01-12T07:27:27.056Z,-28.4
2023-01-12T07:29:28.677Z,-28.5
2023-01-12T07:31:30.096Z,-28.4
2023-01-12T07:33:31.167Z,-28.5
2023-01-12T07:35:32.814Z,-28.4
2023-01-12T07:39:35.592Z,-28.4
2023-01-12T07:41:36.883Z,-28.4
2023-01-12T07:43:38.422Z,-28.2
2023-01-12T07:45:39.356Z,-28.2
2023-01-12T07:46:23.247Z,-28.5
2023-01-12T07:50:25.718Z,-28.3
2023-01-12T07:52:27.636Z,-28.2
2023-01-12T07:54:29.088Z,-28.3
2023-01-12T07:56:30.909Z,-28.7
2023-01-12T07:58:31.914Z,-28.4
2023-01-12T08:00:32.850Z,-28.2
2023-01-12T08:02:33.949Z,-28.5
2023-01-12T08:04:35.619Z,-28.4
2023-01-12T08:06:37.301Z,-28.4
2023-01-12T08:08:39.025Z,-28.5
2023-01-12T08:10:40.887Z,-28.3
2023-01-12T08:12:42.758Z,-28.5
2023-01-12T08:14:44.656Z,-28.3
2023-01-12T08:16:46.250Z,-28.6
2023-01-12T08:18:47.979Z,-28.3
2023-01-12T08:20:49.718Z,-28.4
2023-01-12T08:22:51.582Z,-28.4
2023-01-12T08:24:53.337Z,-28.2
2023-01-12T08:26:54.445Z,-28.4
2023-01-12T08:28:56.019Z,-28.6
2023-01-12T08:32:58.609Z,-28.3
2023-01-12T08:35:00.372Z,-28.3
2023-01-12T08:37:01.271Z,-28
2023-01-12T08:39:02.504Z,-28.2
2023-01-12T08:45:07.081Z,-28.5
2023-01-12T08:47:08.580Z,-28.2
2023-01-12T08:49:09.946Z,-28.3
2023-01-12T08:51:10.845Z,-28.3
2023-01-12T08:53:12.079Z,-28.4
2023-01-12T08:55:13.412Z,-28.6
2023-01-12T08:57:14.935Z,-28.8
2023-01-12T08:59:16.587Z,-28.9
2023-01-12T09:01:18.490Z,-28.4
2023-01-12T09:03:20.845Z,-28.3
2023-01-12T09:05:22.037Z,-28.4
2023-01-12T09:07:23.564Z,-28.4
2023-01-12T09:09:25.135Z,-28.5
2023-01-12T09:11:26.848Z,-28.2
2023-01-12T09:13:28.741Z,-28.2
2023-01-12T09:15:30.155Z,-28.4
2023-01-12T09:17:31.448Z,-28.6
2023-01-12T09:19:32.454Z,-28.5
2023-01-12T09:21:33.418Z,-28.3
2023-01-12T09:23:35.239Z,-28
2023-01-12T09:25:36.450Z,-28.2
2023-01-12T09:27:37.916Z,-28.1
2023-01-12T09:29:39.223Z,-28.3
2023-01-12T09:31:40.644Z,-28.6
2023-01-12T09:33:42.201Z,-28.4
2023-01-12T09:35:43.663Z,-28.9
2023-01-12T09:37:45.442Z,-28.1
2023-01-12T09:39:47.206Z,-28.4
2023-01-12T09:41:49.016Z,-25.9
2023-01-12T09:43:50.419Z,-28.4
2023-01-12T09:47:53.904Z,-18.1
2023-01-12T09:49:58.644Z,-16.7
2023-01-12T09:51:55.655Z,-17.7
2023-01-12T09:53:57.545Z,-16.9
2023-01-12T10:00:00.772Z,-20.29
2023-01-12T10:02:02.313Z,-8.1
2023-01-12T10:04:03.730Z,-21.9
2023-01-12T10:06:05.281Z,-28.3
2023-01-12T10:08:06.286Z,-25.9
2023-01-12T10:10:07.897Z,-22.4
2023-01-12T10:14:10.723Z,-11.2
2023-01-12T10:16:11.989Z,-13.5
2023-01-12T10:18:13.488Z,-19.79
2023-01-12T10:20:16.888Z,-25.7
2023-01-12T10:22:16.402Z,-27
2023-01-12T10:24:17.397Z,-25
2023-01-12T10:26:18.693Z,-24.6
2023-01-12T10:28:19.774Z,-26.7
2023-01-12T10:30:20.813Z,-28.3
2023-01-12T10:32:22.124Z,-28.3
2023-01-12T10:36:25.456Z,-25.8
2023-01-12T10:38:27.238Z,-25.8
2023-01-12T10:40:28.854Z,-21.1
2023-01-12T10:42:30.190Z,-23.8
2023-01-12T10:44:31.345Z,-25.5
2023-01-12T10:46:32.364Z,-27.1
2023-01-12T10:48:33.645Z,-26.2
2023-01-12T10:50:34.717Z,-24.3
2023-01-12T10:52:35.882Z,-24.9
2023-01-12T10:56:38.753Z,-28.4
2023-01-12T10:58:40.318Z,-28.3
2023-01-12T11:00:42.167Z,-28.5
2023-01-12T11:02:43.602Z,-28.5
2023-01-12T11:04:44.850Z,-28.2
2023-01-12T11:06:46.509Z,-28.5
2023-01-12T11:08:48.055Z,-28.4
2023-01-12T11:12:50.567Z,-28.3
2023-01-12T11:14:51.539Z,-28.2
2023-01-12T11:16:52.561Z,-28.5
2023-01-12T11:18:53.959Z,-28.3
2023-01-12T11:21:05.049Z,-28.2
2023-01-12T11:24:57.295Z,-27.1
2023-01-12T11:29:00.124Z,-13.5
2023-01-12T11:31:01.474Z,-21.1
2023-01-12T11:33:03.081Z,-22.8
2023-01-12T11:35:04.953Z,-17
2023-01-12T11:41:09.152Z,-17.9
2023-01-12T11:43:10.334Z,-22.2
2023-01-12T11:45:12.109Z,-25.7
2023-01-12T11:47:13.826Z,-25.1
2023-01-12T11:49:14.838Z,-27.2
2023-01-12T11:51:16.410Z,-24.2
2023-01-12T11:53:18.291Z,-27.5
2023-01-12T11:55:19.425Z,-25.5
2023-01-12T11:57:21.071Z,-19.7
2023-01-12T11:59:22.842Z,-8.89
2023-01-12T12:01:24.308Z,-3.4
2023-01-12T12:03:26.139Z,-8.39
2023-01-12T12:05:27.721Z,-16.79
2023-01-12T12:07:28.922Z,-12.8
2023-01-12T12:11:32.223Z,-8.7
2023-01-12T12:13:34.107Z,-14.1
2023-01-12T12:15:35.266Z,-2.9
2023-01-12T12:17:36.497Z,-1.2
2023-01-12T12:19:38.358Z,-7.2
2023-01-12T12:23:41.735Z,3.1
2023-01-12T12:25:43.190Z,-12
2023-01-12T12:27:44.628Z,-8.8
2023-01-12T12:29:46.000Z,-0.1
2023-01-12T12:31:46.979Z,-14.2
2023-01-12T12:33:47.973Z,-19.7
2023-01-12T12:39:52.885Z,-5.4
2023-01-12T12:41:54.737Z,19.4
2023-01-12T12:43:56.554Z,48.3
2023-01-12T12:45:58.358Z,31.1
2023-01-12T12:47:59.640Z,16.5
2023-01-12T12:50:00.680Z,26.7
2023-01-12T12:52:01.695Z,50.6
2023-01-12T12:54:03.018Z,53.2
2023-01-12T12:56:04.276Z,31.9
2023-01-12T13:00:07.482Z,-12.4
2023-01-12T13:02:09.463Z,-20.2
2023-01-12T13:04:10.872Z,-23.7
2023-01-12T13:06:12.744Z,-25
2023-01-12T13:10:14.789Z,-17.79
2023-01-12T13:12:17.716Z,-21.6
2023-01-12T13:14:17.100Z,-24.2
2023-01-12T13:16:18.571Z,-26.2
2023-01-12T13:20:25.877Z,-22
2023-01-12T13:22:23.230Z,-28.4
2023-01-12T13:24:24.857Z,-28.2
2023-01-12T13:26:26.409Z,-28.5
2023-01-12T13:28:35.513Z,-28.3
2023-01-12T13:30:28.521Z,-28.3
2023-01-12T13:32:30.113Z,-28.3
2023-01-12T13:34:31.370Z,-28.5
2023-01-12T13:36:32.735Z,-28.1
2023-01-12T13:38:34.597Z,-28.2
2023-01-12T13:40:36.357Z,-28.5
2023-01-12T13:42:37.831Z,-28.4
2023-01-12T13:44:39.597Z,-26.5
2023-01-12T13:48:42.846Z,-26.1
2023-01-12T13:50:44.665Z,-27.7
2023-01-12T13:52:46.073Z,-27.5
2023-01-12T13:54:47.234Z,-27.7
2023-01-12T13:56:48.319Z,-28.1
2023-01-12T13:58:50.169Z,-28.5
2023-01-12T14:02:53.275Z,-28.2
2023-01-12T14:04:55.096Z,-28
2023-01-12T14:06:56.188Z,-28
2023-01-12T14:08:57.774Z,-28.3
2023-01-12T14:10:58.855Z,-28.3
2023-01-12T14:13:00.212Z,-28.3
2023-01-12T14:15:01.153Z,-28
2023-01-12T14:17:05.128Z,-28
2023-01-12T14:19:04.159Z,-28
2023-01-12T14:21:05.571Z,-28.3
2023-01-12T14:23:06.863Z,-28.2
2023-01-12T14:25:08.618Z,-28
2023-01-12T14:27:10.314Z,-28.3
2023-01-12T14:29:12.117Z,-28.3
2023-01-12T14:31:13.882Z,-28.4
2023-01-12T14:31:57.696Z,-28.3
2023-01-12T14:36:00.074Z,-28.2
2023-01-12T14:38:01.187Z,-28.4
2023-01-12T14:40:02.863Z,-28.4
2023-01-12T14:42:04.347Z,-28.3
2023-01-12T14:44:06.138Z,-28.2
2023-01-12T14:46:07.216Z,-28
2023-01-12T14:48:08.869Z,-28.2
2023-01-12T14:50:10.676Z,-28.3
2023-01-12T14:52:12.607Z,-28.3
2023-01-12T14:56:16.005Z,-27.9
2023-01-12T14:58:17.710Z,-28.2
2023-01-12T15:00:18.639Z,-27.9
2023-01-12T15:02:20.237Z,-28.5
2023-01-12T15:04:21.338Z,-28.4
2023-01-12T15:06:22.606Z,-28.3
2023-01-12T15:08:23.632Z,-28.3
2023-01-12T15:10:25.103Z,-28.3
2023-01-12T15:12:26.894Z,-28.4
2023-01-12T15:14:28.731Z,-28.2
2023-01-12T15:18:31.186Z,-28.3
2023-01-12T15:20:32.717Z,-28.1
2023-01-12T15:22:34.444Z,-28.5
2023-01-12T15:24:36.049Z,-28.5
2023-01-12T15:26:37.508Z,-28.2
2023-01-12T15:28:38.418Z,-28.2
2023-01-12T15:30:40.060Z,-27.9
2023-01-12T15:32:47.591Z,-28.4
2023-01-12T15:34:42.320Z,-28.4
2023-01-12T15:40:45.978Z,-28.2
2023-01-12T15:42:46.944Z,-28
2023-01-12T15:44:48.812Z,-28.2
2023-01-12T15:46:49.799Z,-28.4
2023-01-12T15:48:51.253Z,-28.3
2023-01-12T15:50:52.197Z,-28.6
2023-01-12T15:54:54.674Z,-28.2
2023-01-12T15:56:56.504Z,-28.3
2023-01-12T15:58:57.558Z,-28.3
2023-01-12T16:00:59.290Z,-28.3
2023-01-12T16:07:03.142Z,-28.6
2023-01-12T16:09:04.182Z,-28.5
2023-01-12T16:11:05.538Z,-28.4
2023-01-12T16:13:07.797Z,-28.2
2023-01-12T16:15:09.304Z,-28.2
2023-01-12T16:17:11.143Z,-28.5
2023-01-12T16:19:12.249Z,-28.4
2023-01-12T16:21:13.809Z,-28
2023-01-12T16:23:15.265Z,-28.2
2023-01-12T16:25:16.846Z,-28.4
2023-01-12T16:27:18.758Z,-28.2
2023-01-12T16:31:21.102Z,-28.3
2023-01-12T16:33:22.525Z,-28
2023-01-12T16:35:23.804Z,-28.3
2023-01-12T16:37:25.441Z,-28.4
2023-01-12T16:39:26.855Z,-28.5
2023-01-12T16:41:28.245Z,-28
2023-01-12T16:43:29.924Z,-28.2
2023-01-12T16:45:31.696Z,-28.5
2023-01-12T16:49:35.888Z,-28.3
2023-01-12T16:53:37.147Z,-28.5
2023-01-12T16:55:38.903Z,-28.3
2023-01-12T16:57:40.113Z,-28.6
2023-01-12T16:59:41.990Z,-28.5
2023-01-12T17:05:45.814Z,-28.6
2023-01-12T17:07:46.990Z,-28.2
2023-01-12T17:09:48.179Z,-28
2023-01-12T17:11:49.815Z,-28.5
2023-01-12T17:13:52.257Z,-28.3
2023-01-12T17:15:52.445Z,-28.3
2023-01-12T17:17:54.145Z,-28.2
2023-01-12T17:19:56.660Z,-28.4
2023-01-12T17:21:56.892Z,-28.2
2023-01-12T17:23:58.103Z,-28.4
2023-01-12T17:25:59.019Z,-28.4
2023-01-12T17:28:00.396Z,-28.4
2023-01-12T17:30:02.466Z,-28.4
2023-01-12T17:32:04.043Z,-28.4
2023-01-12T17:34:04.799Z,-28.3
2023-01-12T17:36:05.779Z,-28.6
2023-01-12T17:38:07.102Z,-28.5
2023-01-12T17:40:08.493Z,-28.3
2023-01-12T17:42:10.204Z,-28.3
2023-01-12T17:44:11.771Z,-28.1
2023-01-12T17:46:12.906Z,-28.5
2023-01-12T17:48:14.541Z,-28.5
2023-01-12T17:50:15.912Z,-28.1
2023-01-12T17:52:17.187Z,-28.4
2023-01-12T17:54:18.094Z,-28.4
2023-01-12T17:56:19.222Z,-28.5
2023-01-12T17:58:20.729Z,-28.4
2023-01-12T18:04:25.117Z,-28.2
2023-01-12T18:06:27.216Z,-28.3
2023-01-12T18:08:28.479Z,-28.4
2023-01-12T18:10:30.161Z,-28.5
2023-01-12T18:12:31.224Z,-28.4
2023-01-12T18:14:32.330Z,-28.5
2023-01-12T18:18:35.194Z,-28.4
2023-01-12T18:20:36.999Z,-28.6
2023-01-12T18:22:37.978Z,-28.2
2023-01-12T18:24:39.124Z,-27.9
2023-01-12T18:30:43.289Z,-28.3
2023-01-12T18:32:44.638Z,-28.2
2023-01-12T18:34:46.034Z,-28.3
2023-01-12T18:36:47.881Z,-28.2
2023-01-12T18:38:49.325Z,-28.2
2023-01-12T18:40:50.960Z,-28.5
2023-01-12T18:42:52.755Z,-28.4
2023-01-12T18:44:53.688Z,-28.2
2023-01-12T18:46:55.283Z,-28.4
2023-01-12T18:48:56.547Z,-28.2
2023-01-12T18:50:57.669Z,-28.4
2023-01-12T18:52:59.150Z,-28.2
2023-01-12T18:55:00.919Z,-28.4
2023-01-12T18:57:02.248Z,-28.4
2023-01-12T18:59:03.470Z,-28.2
2023-01-12T19:01:05.092Z,-28.4
2023-01-12T19:03:06.839Z,-28.3
2023-01-12T19:05:08.166Z,-28.2
2023-01-12T19:07:09.248Z,-28.3
2023-01-12T19:09:10.634Z,-28.3
2023-01-12T19:11:12.433Z,-28.4
2023-01-12T19:13:14.160Z,-28.4
2023-01-12T19:17:17.505Z,-28.5
2023-01-12T19:19:18.629Z,-28.4
2023-01-12T19:21:19.847Z,-28.4
2023-01-12T19:23:21.171Z,-28.5
2023-01-12T19:29:25.017Z,-28.3
2023-01-12T19:31:26.575Z,-28.4
2023-01-12T19:33:27.796Z,-28.2
2023-01-12T19:35:28.769Z,-28
2023-01-12T19:37:30.562Z,-28.4
2023-01-12T19:39:32.253Z,-28.4
2023-01-12T19:41:34.108Z,-28.5
2023-01-12T19:43:35.938Z,-28.5
2023-01-12T19:45:37.173Z,-28.5
2023-01-12T19:47:38.307Z,-28.4
2023-01-12T19:49:40.188Z,-28.5
2023-01-12T19:51:42.027Z,-28.5
2023-01-12T19:53:43.729Z,-28.5
2023-01-12T19:55:45.535Z,-28.5
2023-01-12T19:57:46.817Z,-28.3
2023-01-12T19:59:48.178Z,-28.5
2023-01-12T20:01:49.287Z,-28.3
2023-01-12T20:03:50.217Z,-28.4
2023-01-12T20:05:51.128Z,-28.3
2023-01-12T20:07:52.826Z,-28.3
2023-01-12T20:09:54.223Z,-28.4
2023-01-12T20:11:56.024Z,-28.3
2023-01-12T20:13:57.737Z,-28.6
2023-01-12T20:15:59.286Z,-28.4
2023-01-12T20:18:00.272Z,-28.3
2023-01-12T20:20:01.470Z,-28.3
2023-01-12T20:22:03.084Z,-28.3
2023-01-12T20:28:07.948Z,-28.3
2023-01-12T20:30:09.657Z,-28.4
2023-01-12T20:32:11.096Z,-28.4
2023-01-12T20:34:12.363Z,-28.4
2023-01-12T20:36:14.094Z,-28.4
2023-01-12T20:38:15.601Z,-28.2
2023-01-12T20:40:17.059Z,-28.4
2023-01-12T20:42:18.518Z,-28.4
2023-01-12T20:44:19.408Z,-28.5
2023-01-12T20:48:21.733Z,-28.3
2023-01-12T20:50:23.366Z,-28.6
2023-01-12T20:52:25.007Z,-28.3
2023-01-12T20:54:26.825Z,-28.4
2023-01-12T20:58:29.580Z,-28.5
2023-01-12T21:00:30.993Z,-28.5
2023-01-12T21:02:32.193Z,-28.4
2023-01-12T21:04:33.439Z,-28.2
2023-01-12T21:08:36.722Z,-28.6
2023-01-12T21:10:38.464Z,-28.7
2023-01-12T21:12:39.560Z,-28.4
2023-01-12T21:14:41.227Z,-28.2
2023-01-12T21:16:42.893Z,-28.2
2023-01-12T21:17:26.596Z,-28.5
2023-01-12T21:19:28.053Z,-28.3
2023-01-12T21:21:29.100Z,-28.5
2023-01-12T21:23:30.019Z,-28.3
2023-01-12T21:25:31.421Z,-28.3
2023-01-12T21:27:32.461Z,-28.5
2023-01-12T21:31:35.061Z,-28.2
2023-01-12T21:35:37.781Z,-28.4
2023-01-12T21:37:38.759Z,-28.4
2023-01-12T21:39:40.114Z,-28.4
2023-01-12T21:41:41.099Z,-28.4
2023-01-12T21:47:45.247Z,-28.3
2023-01-12T21:49:47.003Z,-28.4
2023-01-12T21:51:48.431Z,-28.4
2023-01-12T21:53:50.111Z,-28.5
2023-01-12T21:55:51.773Z,-28
2023-01-12T21:57:52.956Z,-28.3
2023-01-12T21:59:54.135Z,-28.4
2023-01-12T22:01:55.641Z,-28.4
2023-01-12T22:03:57.308Z,-28.4
2023-01-12T22:05:58.217Z,-28.4
2023-01-12T22:07:59.893Z,-28.2
2023-01-12T22:10:01.065Z,-28.2
2023-01-12T22:12:02.376Z,-28.3
2023-01-12T22:14:03.393Z,-28.5
2023-01-12T22:16:04.761Z,-28.4
2023-01-12T22:18:06.206Z,-28.6
2023-01-12T22:20:07.355Z,-28.3
2023-01-12T22:24:09.822Z,-28.3
2023-01-12T22:26:11.600Z,-28.3
2023-01-12T22:28:12.629Z,-28.5
2023-01-12T22:30:14.013Z,-28.2
2023-01-12T22:32:15.799Z,-28.5
2023-01-12T22:34:17.188Z,-28.3
2023-01-12T22:36:18.563Z,-28.6
2023-01-12T22:38:19.846Z,-28.4
2023-01-12T22:40:21.253Z,-28.3
2023-01-12T22:46:26.166Z,-28.1
2023-01-12T22:48:27.151Z,-28.4
2023-01-12T22:50:28.748Z,-28.4
2023-01-12T22:52:30.057Z,-28.4
2023-01-12T22:54:31.654Z,-28.2
2023-01-12T22:56:32.971Z,-28.4
2023-01-12T23:00:36.049Z,-28
2023-01-12T23:02:37.482Z,-28.4
2023-01-12T23:04:38.860Z,-28.2
2023-01-12T23:06:40.049Z,-28.3
2023-01-12T23:12:44.472Z,-28.5
2023-01-12T23:14:45.435Z,-28.5
2023-01-12T23:16:47.102Z,-28.4
2023-01-12T23:18:48.965Z,-28.6
2023-01-12T23:20:50.677Z,-28.3
2023-01-12T23:22:51.947Z,-28.5
2023-01-12T23:24:53.605Z,-28.5
2023-01-12T23:26:55.159Z,-28.6
2023-01-12T23:28:56.154Z,-28.5
2023-01-12T23:30:57.249Z,-28.5
2023-01-12T23:32:58.906Z,-28.3
2023-01-12T23:35:00.240Z,-28.4
2023-01-12T23:37:02.037Z,-28.2
2023-01-12T23:39:03.957Z,-28.5
2023-01-12T23:41:05.047Z,-28.5
2023-01-12T23:43:06.055Z,-28.4
2023-01-12T23:45:07.215Z,-28.5
2023-01-12T23:47:08.801Z,-28.6
2023-01-12T23:49:09.888Z,-28.4
2023-01-12T23:51:10.932Z,-28.6
2023-01-12T23:53:12.798Z,-28.5
2023-01-12T23:55:14.209Z,-28.2
2023-01-12T23:59:17.477Z,-28
